Time;durP1;ratioP1;P1;durP2;ratioP2;P2;SDS_P1;SDS_P2;PMS_P1;PMS_P2;Temp;Humidity;BMP_temperature;BMP_pressure;BME280_temperature;BME280_humidity;BME280_pressure;Samples;Min_cycle;Max_cycle;Signal;HPM_P1;HPM_P2
2022/03/29 00:02:18;;;;;;;34.45;27.30;;;7.60;99.90;;;;;;4917151;29;20044;-78
2022/03/29 00:04:45;;;;;;;50.35;34.28;;;7.60;99.90;;;;;;4916743;29;20499;-78
2022/03/29 00:07:11;;;;;;;39.15;29.05;;;7.60;99.90;;;;;;4934410;29;20067;-78
2022/03/29 00:09:38;;;;;;;40.78;29.30;;;7.50;99.90;;;;;;4914681;29;20479;-79
2022/03/29 00:12:04;;;;;;;42.78;30.73;;;7.60;99.90;;;;;;4937587;29;20050;-79
2022/03/29 00:14:31;;;;;;;44.33;30.25;;;7.60;99.90;;;;;;4948296;29;20051;-78
2022/03/29 00:16:57;;;;;;;39.85;28.75;;;7.60;99.90;;;;;;4918035;29;20379;-79
2022/03/29 00:19:24;;;;;;;49.53;35.10;;;7.60;99.90;;;;;;4902141;29;20046;-79
2022/03/29 00:21:51;;;;;;;43.08;30.45;;;7.60;99.90;;;;;;4933325;29;20039;-79
2022/03/29 00:24:17;;;;;;;70.68;45.58;;;7.60;99.90;;;;;;4933919;29;20051;-79
2022/03/29 00:26:43;;;;;;;45.47;31.90;;;7.60;99.90;;;;;;4918182;29;20055;-79
2022/03/29 00:29:10;;;;;;;50.00;32.72;;;7.50;99.90;;;;;;4933596;29;20051;-79
2022/03/29 00:31:36;;;;;;;47.55;34.22;;;7.50;99.90;;;;;;4936906;29;20043;-78
2022/03/29 00:34:03;;;;;;;54.28;37.58;;;7.50;99.90;;;;;;4917521;29;20036;-79
2022/03/29 00:36:31;;;;;;;55.72;37.47;;;7.50;99.90;;;;;;4916307;29;20043;-79
2022/03/29 00:38:57;;;;;;;50.63;35.80;;;7.50;99.90;;;;;;4934988;29;20059;-78
2022/03/29 00:41:24;;;;;;;49.40;33.97;;;7.50;99.90;;;;;;4950284;28;20031;-79
2022/03/29 00:43:50;;;;;;;49.25;34.47;;;7.50;99.90;;;;;;4934667;29;20032;-79
2022/03/29 00:46:16;;;;;;;51.63;34.97;;;7.50;99.90;;;;;;4944232;28;20043;-80
2022/03/29 00:48:43;;;;;;;61.88;40.85;;;7.50;99.90;;;;;;4934199;29;20046;-80
2022/03/29 00:51:10;;;;;;;45.40;30.00;;;7.60;99.90;;;;;;4933083;29;20054;-80
2022/03/29 00:53:37;;;;;;;43.85;29.63;;;7.50;99.90;;;;;;4933113;29;20395;-80
2022/03/29 00:56:04;;;;;;;49.97;31.80;;;7.50;99.90;;;;;;4934532;29;20032;-79
2022/03/29 00:58:33;;;;;;;59.25;39.50;;;7.50;99.90;;;;;;4942662;29;20554;-80
2022/03/29 01:01:01;;;;;;;44.70;30.95;;;7.50;99.90;;;;;;4926310;29;20051;-79
2022/03/29 01:03:28;;;;;;;49.65;33.85;;;7.50;99.90;;;;;;4936121;29;20031;-80
2022/03/29 01:05:54;;;;;;;52.70;35.30;;;7.50;99.90;;;;;;4933536;29;21193;-79
2022/03/29 01:08:21;;;;;;;50.70;33.47;;;7.50;99.90;;;;;;4918845;29;20043;-79
2022/03/29 01:10:48;;;;;;;45.13;32.75;;;7.50;99.90;;;;;;4927921;29;20040;-79
2022/03/29 01:13:15;;;;;;;73.80;42.03;;;7.50;99.90;;;;;;4916825;29;20488;-79
2022/03/29 01:15:42;;;;;;;45.75;32.97;;;7.60;99.90;;;;;;4918821;29;20052;-79
2022/03/29 01:18:08;;;;;;;58.75;38.65;;;7.60;99.90;;;;;;4904506;29;20467;-79
2022/03/29 01:20:37;;;;;;;49.95;32.50;;;7.60;99.90;;;;;;4918750;29;20047;-79
2022/03/29 01:23:05;;;;;;;44.95;30.88;;;7.50;99.90;;;;;;4921021;29;20036;-79
2022/03/29 01:25:36;;;;;;;47.55;33.28;;;7.50;99.90;;;;;;4916797;29;20047;-79
2022/03/29 01:28:04;;;;;;;65.45;35.47;;;7.50;99.90;;;;;;4921220;29;20043;-79
2022/03/29 01:30:34;;;;;;;58.95;37.45;;;7.50;99.90;;;;;;4923694;29;20039;-79
2022/03/29 01:33:02;;;;;;;57.88;37.95;;;7.60;99.90;;;;;;4924931;29;20039;-79
2022/03/29 01:35:30;;;;;;;75.38;41.10;;;7.50;99.90;;;;;;4905078;29;20043;-79
2022/03/29 01:37:57;;;;;;;50.53;35.80;;;7.50;99.90;;;;;;4923019;29;20044;-79
2022/03/29 01:40:25;;;;;;;51.17;34.08;;;7.50;99.90;;;;;;4921057;29;20055;-79
2022/03/29 01:42:57;;;;;;;49.10;33.95;;;7.50;99.90;;;;;;4923761;29;20031;-79
2022/03/29 01:45:29;;;;;;;50.47;34.57;;;7.50;99.90;;;;;;4936951;29;20365;-79
2022/03/29 01:47:56;;;;;;;50.95;34.88;;;7.40;99.90;;;;;;4904181;29;20290;-79
2022/03/29 01:50:23;;;;;;;50.72;30.52;;;7.40;99.90;;;;;;4936041;29;20031;-79
2022/03/29 01:52:49;;;;;;;53.08;33.67;;;7.40;99.90;;;;;;4921619;29;20121;-79
2022/03/29 01:55:19;;;;;;;49.05;32.67;;;7.50;99.90;;;;;;4916743;29;20043;-80
2022/03/29 01:57:48;;;;;;;93.07;39.00;;;7.50;99.90;;;;;;4948008;28;20607;-80
2022/03/29 02:00:31;;;;;;;49.47;33.00;;;7.50;99.90;;;;;;4922793;28;20043;-80
2022/03/29 02:02:58;;;;;;;53.03;32.00;;;7.50;99.90;;;;;;4933893;28;20041;-79
2022/03/29 02:05:25;;;;;;;63.15;38.00;;;7.40;99.90;;;;;;4940960;28;20038;-79
2022/03/29 02:07:52;;;;;;;90.68;41.22;;;7.40;99.90;;;;;;4945487;28;20035;-77
2022/03/29 02:10:22;;;;;;;81.53;37.90;;;7.40;99.90;;;;;;4942495;28;20039;-77
2022/03/29 02:12:50;;;;;;;73.70;41.17;;;7.30;99.90;;;;;;4942494;28;20051;-77
2022/03/29 02:15:16;;;;;;;66.00;38.38;;;7.30;99.90;;;;;;4948142;28;20522;-79
2022/03/29 02:17:44;;;;;;;87.43;38.80;;;7.30;99.90;;;;;;4935193;29;20039;-78
2022/03/29 02:20:13;;;;;;;50.95;32.47;;;7.30;99.90;;;;;;4923869;28;20043;-78
2022/03/29 02:22:40;;;;;;;41.97;28.80;;;7.30;99.90;;;;;;4949876;28;20058;-78
2022/03/29 02:25:07;;;;;;;46.70;29.95;;;7.30;99.90;;;;;;4939894;28;20051;-78
2022/03/29 02:27:34;;;;;;;43.17;28.27;;;7.30;99.90;;;;;;4949849;28;20045;-78
2022/03/29 02:30:00;;;;;;;71.32;32.20;;;7.30;99.90;;;;;;4923666;29;20719;-78
2022/03/29 02:32:26;;;;;;;48.95;30.23;;;7.30;99.90;;;;;;4927949;28;20280;-78
2022/03/29 02:34:53;;;;;;;44.15;28.50;;;7.30;99.90;;;;;;4942900;28;20050;-79
2022/03/29 02:37:23;;;;;;;39.72;27.15;;;7.30;99.90;;;;;;4933187;29;20510;-78
2022/03/29 02:39:52;;;;;;;83.25;34.95;;;7.30;99.90;;;;;;4952853;28;20043;-79
2022/03/29 02:42:19;;;;;;;82.93;29.60;;;7.30;99.90;;;;;;4940960;28;20035;-78
2022/03/29 02:44:47;;;;;;;51.60;28.00;;;7.30;99.90;;;;;;4939153;28;20050;-79
2022/03/29 02:47:18;;;;;;;72.75;29.92;;;7.30;99.90;;;;;;4924987;29;20046;-79
2022/03/29 02:49:44;;;;;;;87.85;32.92;;;7.30;99.90;;;;;;4946924;28;20043;-79
2022/03/29 02:52:13;;;;;;;45.50;26.13;;;7.30;99.90;;;;;;4951422;28;20026;-79
2022/03/29 02:54:41;;;;;;;88.60;30.33;;;7.20;99.90;;;;;;4944268;28;20063;-79
2022/03/29 02:57:10;;;;;;;71.25;30.80;;;7.20;99.90;;;;;;4944089;29;20082;-79
2022/03/29 02:59:37;;;;;;;49.78;29.50;;;7.20;99.90;;;;;;4929433;29;20043;-79
2022/03/29 03:02:05;;;;;;;44.78;26.23;;;7.10;99.90;;;;;;4937194;29;20031;-78
2022/03/29 03:04:33;;;;;;;45.30;28.33;;;7.10;99.90;;;;;;4923411;29;20411;-78
2022/03/29 03:07:00;;;;;;;215.65;39.05;;;7.10;99.90;;;;;;4921590;29;20050;-78
2022/03/29 03:09:29;;;;;;;54.25;31.10;;;7.10;99.90;;;;;;4955762;28;20043;-78
2022/03/29 03:11:56;;;;;;;48.22;26.63;;;7.10;99.90;;;;;;4921373;29;20043;-78
2022/03/29 03:14:23;;;;;;;44.85;26.73;;;7.10;99.90;;;;;;4924208;29;20078;-78
2022/03/29 03:16:51;;;;;;;69.80;26.05;;;7.10;99.90;;;;;;4943906;29;20031;-77
2022/03/29 03:19:18;;;;;;;38.38;26.98;;;7.10;99.90;;;;;;4922125;29;20142;-78
2022/03/29 03:21:45;;;;;;;35.58;23.77;;;7.10;99.90;;;;;;4917700;29;20074;-78
2022/03/29 03:24:13;;;;;;;50.85;27.17;;;7.10;99.90;;;;;;4942762;29;20126;-78
2022/03/29 03:26:47;;;;;;;49.33;26.48;;;7.10;99.90;;;;;;4942389;29;20035;-78
2022/03/29 03:29:20;;;;;;;38.45;24.75;;;7.10;99.90;;;;;;4941940;29;20058;-77
2022/03/29 03:31:47;;;;;;;;;;;7.10;99.90;;;;;;4940191;29;20039;-78
2022/03/29 03:34:14;;;;;;;42.55;24.65;;;7.20;99.90;;;;;;4954913;29;19921;-78
2022/03/29 03:36:40;;;;;;;37.65;25.33;;;7.20;99.90;;;;;;4937075;29;20050;-78
2022/03/29 03:39:07;;;;;;;41.65;26.90;;;7.20;99.90;;;;;;4905279;29;20035;-79
2022/03/29 03:41:33;;;;;;;34.63;22.65;;;7.20;99.90;;;;;;4955291;28;20038;-78
2022/03/29 03:43:59;;;;;;;39.17;24.30;;;7.20;99.90;;;;;;4923867;29;20035;-78
2022/03/29 03:46:26;;;;;;;162.27;36.28;;;7.20;99.90;;;;;;4938466;28;20038;-78
2022/03/29 03:48:52;;;;;;;83.75;32.08;;;7.10;99.90;;;;;;4932454;29;20032;-78
2022/03/29 03:51:19;;;;;;;53.10;26.83;;;7.20;99.90;;;;;;4937592;29;20043;-79
2022/03/29 03:53:45;;;;;;;177.00;36.08;;;7.10;99.90;;;;;;4911167;29;20043;-78
2022/03/29 03:56:12;;;;;;;42.92;25.70;;;7.10;99.90;;;;;;4929637;29;20063;-79
2022/03/29 03:58:38;;;;;;;40.55;24.35;;;7.10;99.90;;;;;;4921898;29;20048;-78
2022/03/29 04:01:04;;;;;;;61.25;29.88;;;7.10;99.90;;;;;;4937742;29;20039;-78
2022/03/29 04:03:31;;;;;;;41.40;25.55;;;7.10;99.90;;;;;;4935505;29;20032;-78
2022/03/29 04:05:57;;;;;;;39.17;25.13;;;7.10;99.90;;;;;;4917268;29;20040;-78
2022/03/29 04:08:23;;;;;;;85.03;29.00;;;7.20;99.90;;;;;;4905799;29;20039;-79
2022/03/29 04:10:50;;;;;;;41.45;25.52;;;7.20;99.90;;;;;;4919707;29;20031;-79
2022/03/29 04:13:16;;;;;;;36.05;24.55;;;7.20;99.90;;;;;;4921853;29;20039;-79
2022/03/29 04:15:43;;;;;;;51.83;25.38;;;7.10;99.90;;;;;;4917586;29;20040;-79
2022/03/29 04:18:09;;;;;;;77.30;34.67;;;7.20;99.90;;;;;;4935100;29;20046;-79
2022/03/29 04:20:36;;;;;;;49.33;26.80;;;7.20;99.90;;;;;;4919150;29;20043;-78
2022/03/29 04:23:02;;;;;;;51.05;27.80;;;7.10;99.90;;;;;;4924569;29;20399;-78
2022/03/29 04:25:29;;;;;;;54.45;30.75;;;7.20;99.90;;;;;;4934305;29;20028;-79
2022/03/29 04:27:55;;;;;;;61.85;28.95;;;7.20;99.90;;;;;;4934742;29;20449;-78
2022/03/29 04:30:21;;;;;;;48.17;26.67;;;7.20;99.90;;;;;;4936395;29;20036;-78
2022/03/29 04:32:48;;;;;;;39.78;25.42;;;7.20;99.90;;;;;;4920026;29;20044;-79
2022/03/29 04:35:15;;;;;;;61.10;30.63;;;7.10;99.90;;;;;;4937896;29;20043;-79
2022/03/29 04:37:41;;;;;;;48.60;26.90;;;7.20;99.90;;;;;;4934641;29;20055;-79
2022/03/29 04:40:09;;;;;;;44.33;26.35;;;7.20;99.90;;;;;;4918789;29;20051;-78
2022/03/29 04:42:46;;;;;;;106.93;32.80;;;7.20;99.90;;;;;;4924335;29;20151;-79
2022/03/29 04:45:14;;;;;;;56.05;30.13;;;7.20;99.90;;;;;;4917939;29;20391;-79
2022/03/29 04:47:41;;;;;;;52.40;24.83;;;7.20;99.90;;;;;;4925042;29;20028;-79
2022/03/29 04:50:13;;;;;;;43.65;26.75;;;7.20;99.90;;;;;;4918177;29;20047;-79
2022/03/29 04:52:44;;;;;;;138.27;40.22;;;7.20;99.90;;;;;;4932623;29;20036;-79
2022/03/29 04:55:12;;;;;;;70.03;33.30;;;7.10;99.90;;;;;;4916522;29;20048;-79
2022/03/29 04:57:41;;;;;;;46.28;28.52;;;7.10;99.90;;;;;;4928349;28;20047;-79
2022/03/29 05:00:09;;;;;;;40.50;24.58;;;7.10;99.90;;;;;;4924891;29;20039;-79
2022/03/29 05:02:36;;;;;;;95.05;31.05;;;7.10;99.90;;;;;;4924252;28;20027;-79
2022/03/29 05:05:02;;;;;;;49.38;27.05;;;7.10;99.90;;;;;;4954405;28;20041;-79
2022/03/29 05:07:29;;;;;;;80.55;30.00;;;7.20;99.90;;;;;;4942020;28;20035;-79
2022/03/29 05:09:55;;;;;;;41.85;26.13;;;7.20;99.90;;;;;;4942885;29;20471;-79
2022/03/29 05:12:21;;;;;;;54.67;29.70;;;7.20;99.90;;;;;;4940538;28;20032;-79
2022/03/29 05:14:48;;;;;;;66.63;30.35;;;7.20;99.90;;;;;;4939774;29;20051;-79
2022/03/29 05:17:14;;;;;;;67.20;30.25;;;7.10;99.90;;;;;;4952887;28;20046;-79
2022/03/29 05:19:43;;;;;;;89.70;32.65;;;7.10;99.90;;;;;;4946943;28;20038;-78
2022/03/29 05:22:10;;;;;;;51.92;26.92;;;7.10;99.90;;;;;;4953626;28;20047;-78
2022/03/29 05:24:36;;;;;;;108.88;32.30;;;7.20;99.90;;;;;;4940632;29;20035;-78
2022/03/29 05:27:03;;;;;;;71.55;31.10;;;7.20;99.90;;;;;;4940571;28;20023;-83
2022/03/29 05:29:30;;;;;;;106.20;31.58;;;7.20;99.90;;;;;;4951593;28;20397;-83
2022/03/29 05:31:58;;;;;;;70.43;28.70;;;7.20;99.90;;;;;;4941148;28;20045;-82
2022/03/29 05:34:24;;;;;;;62.25;27.08;;;7.20;99.90;;;;;;4904865;29;20043;-83
2022/03/29 05:36:51;;;;;;;63.10;27.15;;;7.10;99.90;;;;;;4919482;29;20036;-82
2022/03/29 05:39:18;;;;;;;51.03;27.77;;;7.10;99.90;;;;;;4931709;29;20134;-84
2022/03/29 05:41:45;;;;;;;58.38;27.88;;;7.20;99.90;;;;;;4937496;29;20039;-83
2022/03/29 05:44:11;;;;;;;54.60;27.25;;;7.20;99.90;;;;;;4936830;29;20036;-83
2022/03/29 05:49:24;;;;;;;44.90;26.58;;;7.20;99.90;;;;;;4927205;29;20042;-84
2022/03/29 05:51:52;;;;;;;76.20;30.88;;;7.20;99.90;;;;;;4938226;29;20046;-85
2022/03/29 05:54:22;;;;;;;45.40;27.85;;;7.20;99.90;;;;;;4928860;28;20051;-84
2022/03/29 05:56:56;;;;;;;148.90;36.55;;;7.20;99.90;;;;;;4907892;29;20042;-84
2022/03/29 05:59:23;;;;;;;54.42;29.20;;;7.30;99.90;;;;;;4933121;29;20066;-83
2022/03/29 06:01:49;;;;;;;62.17;32.05;;;7.30;99.90;;;;;;4935123;29;20050;-84
2022/03/29 06:04:17;;;;;;;72.10;34.60;;;7.30;99.90;;;;;;4932168;29;20055;-82
2022/03/29 06:06:45;;;;;;;72.47;32.60;;;7.20;99.90;;;;;;4915511;29;20048;-82
2022/03/29 06:09:11;;;;;;;56.80;30.48;;;7.30;99.90;;;;;;4921832;29;20035;-83
2022/03/29 06:11:41;;;;;;;66.13;30.48;;;7.20;99.90;;;;;;4936411;29;20046;-82
2022/03/29 06:14:10;;;;;;;81.45;31.88;;;7.30;99.90;;;;;;4932558;29;20043;-83
2022/03/29 06:16:36;;;;;;;88.45;38.38;;;7.30;99.90;;;;;;4934947;29;20039;-84
2022/03/29 06:19:03;;;;;;;64.38;36.65;;;7.30;99.90;;;;;;4890616;29;20036;-82
2022/03/29 06:21:29;;;;;;;59.72;34.85;;;7.40;99.90;;;;;;4937709;29;20048;-84
2022/03/29 06:23:59;;;;;;;57.83;34.05;;;7.40;99.90;;;;;;4916084;29;20043;-85
2022/03/29 06:26:25;;;;;;;92.20;41.88;;;7.40;99.90;;;;;;4904950;29;20050;-83
2022/03/29 06:28:51;;;;;;;121.20;39.35;;;7.50;99.90;;;;;;4926108;29;20499;-83
2022/03/29 06:31:20;;;;;;;78.15;36.78;;;7.40;99.90;;;;;;4936654;29;20035;-84
2022/03/29 06:33:49;;;;;;;76.85;37.38;;;7.40;99.90;;;;;;4920715;29;20031;-83
2022/03/29 06:36:19;;;;;;;79.53;39.58;;;7.30;99.90;;;;;;4937249;29;20059;-83
2022/03/29 06:38:46;;;;;;;57.28;32.67;;;7.20;99.90;;;;;;4940022;29;20031;-83
2022/03/29 06:41:13;;;;;;;67.27;34.33;;;7.20;99.90;;;;;;4937589;29;20043;-84
2022/03/29 06:43:41;;;;;;;57.20;32.00;;;7.20;99.90;;;;;;4938589;29;20046;-83
2022/03/29 06:46:09;;;;;;;46.22;28.38;;;7.20;99.90;;;;;;4920262;29;20032;-87
2022/03/29 06:48:37;;;;;;;51.35;30.92;;;7.20;99.90;;;;;;4931163;29;20067;-85
2022/03/29 06:51:04;;;;;;;56.43;32.40;;;7.20;99.90;;;;;;4941603;29;20038;-86
2022/03/29 06:53:32;;;;;;;71.55;37.65;;;7.20;99.90;;;;;;4908137;29;20048;-85
2022/03/29 06:55:59;;;;;;;59.88;32.10;;;7.10;99.90;;;;;;4919159;29;20044;-85
2022/03/29 06:58:26;;;;;;;56.92;31.73;;;7.10;99.90;;;;;;4941743;28;20059;-82
2022/03/29 07:00:54;;;;;;;54.40;31.70;;;7.10;99.90;;;;;;4944058;29;20044;-84
2022/03/29 07:03:22;;;;;;;47.95;27.83;;;7.00;99.90;;;;;;4929569;29;20046;-83
2022/03/29 07:05:50;;;;;;;61.37;33.03;;;7.10;99.90;;;;;;4943055;28;20031;-86
2022/03/29 07:08:20;;;;;;;62.33;37.28;;;7.10;99.90;;;;;;4933045;28;20035;-83
2022/03/29 07:13:38;;;;;;;58.63;33.25;;;7.20;99.90;;;;;;4944747;29;20048;-84
2022/03/29 07:16:08;;;;;;;55.58;31.58;;;7.10;99.90;;;;;;4948219;28;20039;-84
2022/03/29 07:18:35;;;;;;;54.85;32.47;;;7.10;99.90;;;;;;4950323;29;20047;-84
2022/03/29 07:21:02;;;;;;;53.92;30.20;;;7.10;99.90;;;;;;4945851;29;20040;-83
2022/03/29 07:23:31;;;;;;;48.75;30.55;;;7.10;99.90;;;;;;4944485;28;20039;-83
2022/03/29 07:26:00;;;;;;;58.10;32.97;;;7.10;99.90;;;;;;4951042;28;20028;-83
2022/03/29 07:28:28;;;;;;;56.80;32.20;;;7.10;99.90;;;;;;4935829;28;20043;-82
2022/03/29 07:30:54;;;;;;;55.47;32.95;;;7.20;99.90;;;;;;4924758;29;20491;-84
2022/03/29 07:33:22;;;;;;;57.22;31.30;;;7.20;99.90;;;;;;4922588;29;20043;-84
2022/03/29 07:35:49;;;;;;;57.03;31.55;;;7.20;99.90;;;;;;4930530;28;20051;-83
2022/03/29 07:38:16;;;;;;;51.53;30.90;;;7.30;99.90;;;;;;4934445;28;20039;-84
2022/03/29 07:40:43;;;;;;;51.63;30.27;;;7.30;99.90;;;;;;4943193;28;20040;-83
2022/03/29 07:43:23;;;;;;;56.95;33.22;;;7.40;99.90;;;;;;4937082;29;20066;-84
2022/03/29 07:45:49;;;;;;;55.22;32.08;;;7.40;99.90;;;;;;4944351;29;20051;-82
2022/03/29 07:48:16;;;;;;;52.15;30.90;;;7.50;99.90;;;;;;4925824;28;20044;-83
2022/03/29 07:50:47;;;;;;;58.97;34.00;;;7.50;99.90;;;;;;4936346;28;20030;-83
2022/03/29 07:53:14;;;;;;;60.60;33.55;;;7.60;99.90;;;;;;4935297;28;20491;-82
2022/03/29 07:55:40;;;;;;;51.42;30.38;;;7.60;99.90;;;;;;4938019;28;20058;-83
2022/03/29 07:58:08;;;;;;;53.40;32.45;;;7.70;99.90;;;;;;4946090;29;20062;-83
2022/03/29 08:00:37;;;;;;;65.35;39.47;;;7.70;99.90;;;;;;4932683;29;20095;-83
2022/03/29 08:03:12;;;;;;;53.95;32.85;;;7.70;99.90;;;;;;4933235;28;20032;-82
2022/03/29 08:05:43;;;;;;;70.13;38.75;;;7.70;99.90;;;;;;4931732;28;20034;-82
2022/03/29 08:08:11;;;;;;;76.15;40.95;;;7.70;99.90;;;;;;4921647;29;20042;-82
2022/03/29 08:10:38;;;;;;;63.85;36.90;;;7.70;99.90;;;;;;4918565;29;20054;-82
2022/03/29 08:13:10;;;;;;;53.92;32.35;;;7.70;99.90;;;;;;4940940;28;20043;-81
2022/03/29 08:15:38;;;;;;;53.08;29.10;;;7.70;99.90;;;;;;4936779;29;20031;-82
2022/03/29 08:18:06;;;;;;;61.30;35.65;;;7.80;99.90;;;;;;4955021;28;20062;-82
2022/03/29 08:20:32;;;;;;;59.45;35.08;;;7.80;99.90;;;;;;4936132;29;20039;-82
2022/03/29 08:23:00;;;;;;;68.50;38.72;;;7.80;99.90;;;;;;4920252;29;20495;-81
2022/03/29 08:25:29;;;;;;;54.80;33.95;;;7.90;99.90;;;;;;4948780;28;20034;-82
2022/03/29 08:27:57;;;;;;;61.13;36.20;;;7.80;99.90;;;;;;4907875;29;20039;-82
2022/03/29 08:30:25;;;;;;;53.78;32.67;;;7.90;99.90;;;;;;4944890;28;20482;-80
2022/03/29 08:32:52;;;;;;;64.57;35.45;;;7.90;99.90;;;;;;4953491;28;20056;-81
2022/03/29 08:35:21;;;;;;;57.63;33.22;;;7.90;99.90;;;;;;4924451;29;20051;-81
2022/03/29 08:37:50;;;;;;;62.75;35.25;;;8.00;99.90;;;;;;4951256;28;20055;-82
2022/03/29 08:40:21;;;;;;;66.30;37.03;;;8.10;99.90;;;;;;4940208;28;20046;-82
2022/03/29 08:42:54;;;;;;;57.17;33.95;;;8.20;99.90;;;;;;4942876;28;20043;-81
2022/03/29 08:45:28;;;;;;;59.97;33.60;;;8.20;99.90;;;;;;4945997;28;20059;-83
2022/03/29 08:48:02;;;;;;;55.25;33.58;;;8.30;99.90;;;;;;4920970;28;20035;-82
2022/03/29 08:50:36;;;;;;;72.53;39.53;;;8.30;99.90;;;;;;4938787;29;20031;-82
2022/03/29 08:53:04;;;;;;;73.05;41.70;;;8.40;99.90;;;;;;4936056;29;20058;-81
2022/03/29 08:55:31;;;;;;;66.28;37.88;;;8.40;99.90;;;;;;4903866;29;20051;-82
2022/03/29 08:57:57;;;;;;;64.57;37.10;;;8.60;99.90;;;;;;4950213;29;20058;-83
2022/03/29 09:00:24;;;;;;;66.07;39.22;;;8.70;99.90;;;;;;4933917;29;20059;-83
2022/03/29 09:02:51;;;;;;;58.50;35.30;;;8.80;99.90;;;;;;4935133;29;20046;-83
2022/03/29 09:05:27;;;;;;;58.28;35.75;;;8.80;99.90;;;;;;4956005;28;20046;-84
2022/03/29 09:07:55;;;;;;;64.72;36.67;;;8.80;99.90;;;;;;4928327;29;20031;-84
2022/03/29 09:10:44;;;;;;;57.20;34.42;;;8.80;99.90;;;;;;4955625;28;20039;-84
2022/03/29 09:13:40;;;;;;;54.35;33.67;;;8.80;99.90;;;;;;4915873;29;20047;-83
2022/03/29 09:16:27;;;;;;;54.38;33.22;;;8.90;99.90;;;;;;4935790;29;20038;-82
2022/03/29 09:18:56;;;;;;;53.15;32.42;;;8.90;99.90;;;;;;4909984;29;20035;-81
2022/03/29 09:21:24;;;;;;;53.15;31.60;;;9.00;99.90;;;;;;4942439;29;20051;-81
2022/03/29 09:24:22;;;;;;;52.35;32.83;;;9.30;99.90;;;;;;4938364;29;20043;-81
2022/03/29 09:26:54;;;;;;;48.97;30.80;;;9.60;99.90;;;;;;4921277;29;20788;-81
2022/03/29 09:30:04;;;;;;;49.78;30.77;;;9.90;99.90;;;;;;4939978;29;20050;-80
2022/03/29 09:32:31;;;;;;;45.25;29.05;;;10.30;99.90;;;;;;4945662;29;20035;-82
2022/03/29 09:35:05;;;;;;;52.60;33.08;;;10.60;99.90;;;;;;4936160;29;20479;-82
2022/03/29 09:37:35;;;;;;;59.25;36.03;;;10.90;99.90;;;;;;4952927;29;20039;-81
2022/03/29 09:40:02;;;;;;;50.60;33.45;;;10.90;99.90;;;;;;4950292;28;20495;-82
2022/03/29 09:43:02;;;;;;;50.20;31.90;;;10.90;99.90;;;;;;4951846;28;20491;-82
2022/03/29 09:45:44;;;;;;;47.45;33.03;;;10.90;99.90;;;;;;4924328;29;21127;-82
2022/03/29 09:48:20;;;;;;;47.28;29.90;;;11.00;99.90;;;;;;4922380;29;20031;-81
2022/03/29 09:50:48;;;;;;;50.97;32.72;;;11.20;99.90;;;;;;4956038;28;20471;-81
2022/03/29 09:53:34;;;;;;;50.08;32.80;;;11.50;99.90;;;;;;4941325;29;20047;-82
2022/03/29 09:56:00;;;;;;;47.92;31.60;;;11.60;99.90;;;;;;4945759;28;20039;-81
2022/03/29 09:58:29;;;;;;;51.90;33.50;;;11.70;99.90;;;;;;4954490;28;20053;-82
2022/03/29 10:00:56;;;;;;;47.40;32.53;;;11.80;99.90;;;;;;4944036;28;20519;-81
2022/03/29 10:03:26;;;;;;;45.63;32.22;;;11.90;99.90;;;;;;4923537;29;20042;-83
2022/03/29 10:06:01;;;;;;;49.05;31.08;;;12.00;99.90;;;;;;4948024;29;20036;-82
2022/03/29 10:11:18;;;;;;;45.65;29.27;;;12.20;99.90;;;;;;4949823;29;20479;-82
2022/03/29 10:13:46;;;;;;;48.85;33.85;;;12.30;99.90;;;;;;4927606;28;20031;-81
2022/03/29 10:16:16;;;;;;;50.95;33.85;;;12.40;99.90;;;;;;4937427;28;20050;-83
2022/03/29 10:18:46;;;;;;;49.25;33.22;;;12.40;99.90;;;;;;4931229;28;20511;-82
2022/03/29 10:21:15;;;;;;;57.33;35.03;;;12.70;99.90;;;;;;4936224;29;20036;-83
2022/03/29 10:23:44;;;;;;;47.80;33.47;;;12.80;99.90;;;;;;4934909;28;20042;-82
2022/03/29 10:26:19;;;;;;;46.50;34.38;;;12.80;99.90;;;;;;4939731;28;20035;-84
2022/03/29 10:28:49;;;;;;;51.45;33.10;;;12.70;99.90;;;;;;4939672;29;20031;-84
2022/03/29 10:31:36;;;;;;;44.42;31.40;;;12.60;99.90;;;;;;4927443;28;20047;-83
2022/03/29 10:34:26;;;;;;;49.90;34.47;;;12.70;99.90;;;;;;4930764;29;20031;-84
2022/03/29 10:37:09;;;;;;;46.15;30.42;;;12.70;99.90;;;;;;4939327;28;20039;-81
2022/03/29 10:40:10;;;;;;;48.05;33.67;;;12.90;99.90;;;;;;4938655;29;20043;-84
2022/03/29 10:42:42;;;;;;;46.67;31.90;;;13.20;99.90;;;;;;4920930;29;20044;-84
2022/03/29 10:45:24;;;;;;;43.25;30.13;;;13.50;99.90;;;;;;4937236;28;20027;-82
2022/03/29 10:48:02;;;;;;;42.42;32.42;;;13.90;99.90;;;;;;4935313;29;20364;-81
2022/03/29 10:50:46;;;;;;;39.95;30.02;;;14.30;99.90;;;;;;4939366;28;20028;-81
2022/03/29 10:53:47;;;;;;;43.42;33.03;;;14.70;99.20;;;;;;4949811;29;20050;-83
2022/03/29 10:56:15;;;;;;;38.55;29.73;;;15.00;97.90;;;;;;4910421;29;20043;-84
2022/03/29 10:59:04;;;;;;;40.25;30.27;;;15.10;97.40;;;;;;4917264;29;20065;-83
2022/03/29 11:01:35;;;;;;;49.03;35.80;;;15.40;97.10;;;;;;4914019;29;20050;-84
2022/03/29 11:04:21;;;;;;;46.65;34.80;;;15.70;96.40;;;;;;4901538;29;20035;-84
2022/03/29 11:07:06;;;;;;;40.38;31.48;;;16.00;95.80;;;;;;4935504;29;20042;-85
2022/03/29 11:09:34;;;;;;;39.15;30.08;;;16.00;94.50;;;;;;4916778;29;20039;-84
2022/03/29 11:12:00;;;;;;;39.60;29.95;;;16.10;95.40;;;;;;4921521;29;20043;-82
2022/03/29 11:14:39;;;;;;;38.03;29.95;;;16.40;94.20;;;;;;4934885;29;20040;-82
2022/03/29 11:17:11;;;;;;;36.80;29.52;;;16.70;93.40;;;;;;4904093;29;20514;-83
2022/03/29 11:19:46;;;;;;;38.80;29.65;;;17.00;93.00;;;;;;4908542;29;20043;-83
2022/03/29 11:22:36;;;;;;;37.10;30.65;;;17.20;92.40;;;;;;4910108;29;20047;-84
2022/03/29 11:25:09;;;;;;;39.85;32.75;;;17.60;92.00;;;;;;4922678;29;20044;-84
2022/03/29 11:27:37;;;;;;;36.08;29.25;;;17.90;90.70;;;;;;4936027;29;20046;-84
2022/03/29 11:30:09;;;;;;;34.90;28.65;;;18.10;89.60;;;;;;4912180;29;20044;-84
2022/03/29 11:32:36;;;;;;;;;;;18.40;87.80;;;;;;4907545;29;20047;-84
2022/03/29 11:35:05;;;;;;;36.78;29.95;;;18.60;84.70;;;;;;4941921;29;20568;-84
2022/03/29 11:37:43;;;;;;;34.60;29.02;;;18.60;84.60;;;;;;4934937;29;20495;-84
2022/03/29 11:40:16;;;;;;;38.30;29.90;;;19.00;84.90;;;;;;4936855;29;20046;-84
2022/03/29 11:42:50;;;;;;;35.38;29.92;;;19.40;82.80;;;;;;4933245;29;20031;-84
2022/03/29 11:45:19;;;;;;;37.10;31.63;;;19.60;80.30;;;;;;4939537;29;20031;-84
2022/03/29 11:47:56;;;;;;;39.28;31.10;;;19.70;79.00;;;;;;4921470;29;20518;-84
2022/03/29 11:50:39;;;;;;;36.20;31.40;;;19.80;77.10;;;;;;4917319;29;20031;-85
2022/03/29 11:53:30;;;;;;;36.80;31.17;;;19.80;75.40;;;;;;4920893;29;20040;-84
2022/03/29 11:55:59;;;;;;;35.72;31.50;;;19.80;74.40;;;;;;4905231;29;20471;-83
2022/03/29 11:58:32;;;;;;;36.78;31.73;;;19.70;73.10;;;;;;4921110;29;20071;-85
2022/03/29 12:01:04;;;;;;;37.30;31.33;;;19.70;73.30;;;;;;4934336;29;20058;-84
2022/03/29 12:03:40;;;;;;;37.00;32.90;;;19.80;72.00;;;;;;4918264;29;20039;-84
2022/03/29 12:06:17;;;;;;;36.22;30.92;;;19.80;71.80;;;;;;4919687;29;20032;-81
2022/03/29 12:08:48;;;;;;;35.50;29.73;;;19.80;70.70;;;;;;4920036;29;20723;-82
2022/03/29 12:11:25;;;;;;;32.10;28.55;;;19.90;70.00;;;;;;4887684;29;20044;-84
2022/03/29 12:14:14;;;;;;;32.50;28.20;;;20.00;69.70;;;;;;4916139;29;20040;-81
2022/03/29 12:16:53;;;;;;;37.88;31.73;;;20.20;69.90;;;;;;4934162;29;20384;-80
2022/03/29 12:19:28;;;;;;;31.70;28.05;;;20.60;68.00;;;;;;4918356;29;20035;-81
2022/03/29 12:22:01;;;;;;;28.70;25.27;;;21.00;65.80;;;;;;4918391;29;20043;-82
2022/03/29 12:24:39;;;;;;;24.85;21.63;;;21.20;65.30;;;;;;4916928;29;20047;-82
2022/03/29 12:27:13;;;;;;;20.85;18.63;;;21.40;61.30;;;;;;4929386;29;20027;-81
2022/03/29 12:29:44;;;;;;;23.92;21.25;;;21.60;60.50;;;;;;4916759;29;20036;-81
2022/03/29 12:32:11;;;;;;;26.02;22.70;;;22.00;60.80;;;;;;4932631;29;20028;-81
2022/03/29 12:34:38;;;;;;;27.25;24.17;;;22.50;60.20;;;;;;4937155;29;20387;-81
2022/03/29 12:37:13;;;;;;;30.98;25.83;;;22.70;59.30;;;;;;4941594;29;20378;-77
2022/03/29 12:39:51;;;;;;;30.15;26.85;;;22.70;58.30;;;;;;4907293;29;20032;-78
2022/03/29 12:42:19;;;;;;;23.95;21.48;;;22.50;58.70;;;;;;4941406;29;20372;-78
2022/03/29 12:44:55;;;;;;;21.73;18.55;;;22.40;58.10;;;;;;4924417;29;20039;-78
2022/03/29 12:47:25;;;;;;;26.02;20.85;;;22.60;58.10;;;;;;4934816;29;20372;-78
2022/03/29 12:49:52;;;;;;;22.58;20.17;;;22.80;57.20;;;;;;4916388;29;20040;-78
2022/03/29 12:52:54;;;;;;;23.70;21.25;;;23.00;56.80;;;;;;4937773;29;20399;-78
2022/03/29 12:55:22;;;;;;;20.13;17.50;;;23.10;54.40;;;;;;4907035;29;20051;-77
2022/03/29 12:57:49;;;;;;;18.60;16.45;;;23.10;53.90;;;;;;4934276;29;20046;-77
2022/03/29 13:00:22;;;;;;;20.80;18.58;;;23.20;53.40;;;;;;4949272;28;20058;-77